Time;durP1;ratioP1;P1;durP2;ratioP2;P2;SDS_P1;SDS_P2;PMS_P1;PMS_P2;Temp;Humidity;BMP_temperature;BMP_pressure;BME280_temperature;BME280_humidity;BME280_pressure;Samples;Min_cycle;Max_cycle;Signal;HPM_P1;HPM_P2
2021/08/08 00:02:14;;;;;;;8.50;3.13;;;16.50;99.90;;;;;;6297465;28;20133;-73
2021/08/08 00:05:18;;;;;;;2.05;1.33;;;16.50;99.90;;;;;;6297097;28;20503;-75
2021/08/08 00:08:20;;;;;;;1.92;1.38;;;16.60;99.90;;;;;;6296557;28;20097;-75
2021/08/08 00:11:22;;;;;;;1.40;1.17;;;16.60;99.90;;;;;;6296969;28;20126;-75
2021/08/08 00:14:24;;;;;;;1.95;1.35;;;16.70;99.90;;;;;;6297482;28;20061;-75
2021/08/08 00:17:26;;;;;;;2.85;1.40;;;16.80;99.90;;;;;;6296994;28;20041;-74
2021/08/08 00:20:29;;;;;;;1.23;0.98;;;16.80;99.90;;;;;;6296497;28;20049;-75
2021/08/08 00:23:31;;;;;;;2.08;1.40;;;16.80;99.90;;;;;;6296460;28;20117;-74
2021/08/08 00:26:34;;;;;;;1.27;1.17;;;16.80;99.90;;;;;;6296040;28;20048;-75
2021/08/08 00:29:36;;;;;;;0.90;0.90;;;16.80;99.90;;;;;;6296792;28;20053;-74
2021/08/08 00:32:38;;;;;;;5.72;1.40;;;16.80;99.90;;;;;;6296305;28;20044;-74
2021/08/08 00:35:42;;;;;;;0.90;0.82;;;16.80;99.90;;;;;;6295662;28;20048;-74
2021/08/08 00:38:45;;;;;;;1.85;1.30;;;16.80;99.90;;;;;;6295979;28;20414;-74
2021/08/08 00:41:46;;;;;;;1.23;1.13;;;16.70;99.90;;;;;;6289006;28;20436;-74
2021/08/08 00:44:48;;;;;;;2.35;1.23;;;16.70;99.90;;;;;;6289490;28;20114;-74
2021/08/08 00:47:50;;;;;;;2.03;1.10;;;16.60;99.90;;;;;;6274854;28;20045;-74
2021/08/08 00:50:54;;;;;;;1.67;0.75;;;16.60;99.90;;;;;;6271210;28;20052;-73
2021/08/08 00:53:56;;;;;;;1.45;1.33;;;16.50;99.90;;;;;;6271540;28;20063;-75
2021/08/08 00:56:58;;;;;;;2.17;1.23;;;16.50;99.90;;;;;;6270244;28;20049;-75
2021/08/08 01:00:00;;;;;;;2.83;1.05;;;16.50;99.90;;;;;;6270755;28;20051;-74
2021/08/08 01:03:06;;;;;;;1.33;1.23;;;16.40;99.90;;;;;;6271184;28;20072;-74
2021/08/08 01:06:16;;;;;;;2.88;0.82;;;16.40;99.90;;;;;;6270868;28;20049;-75
2021/08/08 01:09:17;;;;;;;1.40;0.90;;;16.40;99.90;;;;;;6270820;28;20049;-74
2021/08/08 01:12:20;;;;;;;1.65;1.30;;;16.50;99.90;;;;;;6270831;28;20055;-74
2021/08/08 01:15:22;;;;;;;1.30;0.90;;;16.50;99.90;;;;;;6270721;28;20074;-74
2021/08/08 01:18:25;;;;;;;0.70;0.70;;;16.60;99.90;;;;;;6270536;28;20426;-74
2021/08/08 01:21:32;;;;;;;1.20;1.10;;;16.60;99.90;;;;;;6270681;28;20110;-75
2021/08/08 01:24:36;;;;;;;1.60;1.48;;;16.50;99.90;;;;;;6270445;28;20045;-74
2021/08/08 01:27:39;;;;;;;1.52;1.40;;;16.50;99.90;;;;;;6270440;28;20087;-74
2021/08/08 01:30:41;;;;;;;5.93;1.10;;;16.40;99.90;;;;;;6270440;28;20052;-75
2021/08/08 01:33:42;;;;;;;1.58;0.88;;;16.40;99.90;;;;;;6270590;28;20044;-74
2021/08/08 01:36:46;;;;;;;7.55;1.23;;;16.40;99.90;;;;;;6269838;28;20481;-75
2021/08/08 01:39:56;;;;;;;2.28;1.63;;;16.40;99.90;;;;;;6270133;28;20079;-75
2021/08/08 01:43:01;;;;;;;2.38;2.17;;;16.30;99.90;;;;;;6270146;28;20045;-74
2021/08/08 01:46:06;;;;;;;1.40;1.30;;;16.30;99.90;;;;;;6277731;28;20049;-74
2021/08/08 01:49:09;;;;;;;4.68;1.05;;;16.30;99.90;;;;;;6272291;28;20049;-75
2021/08/08 01:52:11;;;;;;;4.70;1.45;;;16.30;99.90;;;;;;6270148;28;20049;-75
2021/08/08 01:55:16;;;;;;;2.28;1.30;;;16.20;99.90;;;;;;6270058;28;20086;-75
2021/08/08 01:58:18;;;;;;;1.35;1.25;;;16.20;99.90;;;;;;6270034;28;20198;-75
2021/08/08 02:01:20;;;;;;;1.60;1.50;;;16.20;99.90;;;;;;6269941;28;20074;-75
2021/08/08 02:04:24;;;;;;;2.45;1.63;;;16.20;99.90;;;;;;6269893;28;20413;-74
2021/08/08 02:07:27;;;;;;;2.53;1.13;;;16.20;99.90;;;;;;6269614;28;20049;-75
2021/08/08 02:10:30;;;;;;;2.05;1.23;;;16.20;99.90;;;;;;6273960;28;20410;-75
2021/08/08 02:13:32;;;;;;;3.38;1.35;;;16.20;99.90;;;;;;6274980;28;20427;-75
2021/08/08 02:16:35;;;;;;;6.78;2.85;;;16.20;99.90;;;;;;6274305;28;20076;-75
2021/08/08 02:19:37;;;;;;;2.22;1.23;;;16.20;99.90;;;;;;6274824;28;20579;-75
2021/08/08 02:22:39;;;;;;;1.73;1.52;;;16.20;99.90;;;;;;6274610;28;20056;-75
2021/08/08 02:25:42;;;;;;;9.18;1.80;;;16.10;99.90;;;;;;6275015;28;20082;-75
2021/08/08 02:28:44;;;;;;;3.20;1.77;;;16.10;99.90;;;;;;6274397;28;20132;-75
2021/08/08 02:31:46;;;;;;;1.88;1.63;;;16.10;99.90;;;;;;6274298;28;20066;-74
2021/08/08 02:34:48;;;;;;;2.55;1.48;;;16.20;99.90;;;;;;6274418;28;20055;-74
2021/08/08 02:37:50;;;;;;;2.83;1.40;;;16.20;99.90;;;;;;6274344;28;20083;-75
2021/08/08 02:40:53;;;;;;;2.00;1.70;;;16.10;99.90;;;;;;6274502;28;20502;-76
2021/08/08 02:43:55;;;;;;;4.15;1.60;;;16.20;99.90;;;;;;6274098;28;20097;-75
2021/08/08 02:46:57;;;;;;;3.55;1.20;;;16.20;99.90;;;;;;6278319;28;20071;-74
2021/08/08 02:49:59;;;;;;;5.80;1.95;;;16.20;99.90;;;;;;6294954;28;20190;-75
2021/08/08 02:53:01;;;;;;;5.38;1.10;;;16.20;99.90;;;;;;6298959;28;20063;-74
2021/08/08 02:56:05;;;;;;;2.40;1.30;;;16.20;99.90;;;;;;6298368;28;20506;-76
2021/08/08 02:59:06;;;;;;;3.17;1.50;;;16.20;99.90;;;;;;6298802;28;20072;-75
2021/08/08 03:02:08;;;;;;;2.70;1.50;;;16.20;99.90;;;;;;6299754;28;20135;-74
2021/08/08 03:05:11;;;;;;;3.30;1.70;;;16.20;99.90;;;;;;6298419;28;20086;-75
2021/08/08 03:08:13;;;;;;;1.33;1.17;;;16.30;99.90;;;;;;6298217;28;20052;-75
2021/08/08 03:11:16;;;;;;;3.72;1.00;;;16.30;99.90;;;;;;6298213;28;20078;-75
2021/08/08 03:14:19;;;;;;;1.67;1.27;;;16.30;99.90;;;;;;6298962;28;20098;-76
2021/08/08 03:17:21;;;;;;;5.25;1.52;;;16.40;99.90;;;;;;6297732;28;20044;-75
2021/08/08 03:20:22;;;;;;;2.25;1.20;;;16.40;99.90;;;;;;6297350;28;20094;-75
2021/08/08 03:23:24;;;;;;;3.72;1.52;;;16.40;99.90;;;;;;6298098;28;20044;-75
2021/08/08 03:26:27;;;;;;;1.70;1.58;;;16.40;99.90;;;;;;6298391;28;20135;-75
2021/08/08 03:29:29;;;;;;;4.78;1.38;;;16.50;99.90;;;;;;6298275;28;20082;-75
2021/08/08 03:32:31;;;;;;;1.55;1.00;;;16.50;99.90;;;;;;6298037;28;20051;-74
2021/08/08 03:35:33;;;;;;;5.15;1.48;;;16.50;99.90;;;;;;6297704;28;20502;-74
2021/08/08 03:38:35;;;;;;;2.88;1.83;;;16.50;99.90;;;;;;6297750;28;20137;-74
2021/08/08 03:41:38;;;;;;;4.30;1.55;;;16.50;99.90;;;;;;6298369;28;20098;-75
2021/08/08 03:44:39;;;;;;;3.28;2.88;;;16.60;99.90;;;;;;6297615;28;20135;-74
2021/08/08 03:47:42;;;;;;;1.25;1.15;;;16.60;99.90;;;;;;6291346;28;20395;-75
2021/08/08 03:50:43;;;;;;;3.13;1.70;;;16.60;99.90;;;;;;6277393;28;20052;-75
2021/08/08 03:53:45;;;;;;;4.20;1.55;;;16.60;99.90;;;;;;6273263;28;20048;-74
2021/08/08 03:56:48;;;;;;;4.63;1.48;;;16.60;99.90;;;;;;6272227;28;20087;-75
2021/08/08 03:59:50;;;;;;;1.67;1.45;;;16.60;99.90;;;;;;6272404;28;20045;-74
2021/08/08 04:02:52;;;;;;;1.95;1.42;;;16.50;99.90;;;;;;6272538;28;20048;-74
2021/08/08 04:05:54;;;;;;;3.65;1.15;;;16.50;99.90;;;;;;6272459;28;20557;-74
2021/08/08 04:08:55;;;;;;;2.33;1.20;;;16.50;99.90;;;;;;6271999;28;20461;-75
2021/08/08 04:11:59;;;;;;;2.45;1.10;;;16.40;99.90;;;;;;6272169;28;20128;-74
2021/08/08 04:15:02;;;;;;;2.95;1.13;;;16.40;99.90;;;;;;6272073;28;20457;-74
2021/08/08 04:18:04;;;;;;;5.07;1.25;;;16.40;99.90;;;;;;6272100;28;20143;-74
2021/08/08 04:21:06;;;;;;;1.20;1.10;;;16.40;99.90;;;;;;6271882;28;20049;-74
2021/08/08 04:24:08;;;;;;;1.05;0.90;;;16.40;99.90;;;;;;6271822;28;20483;-74
2021/08/08 04:27:11;;;;;;;1.00;0.90;;;16.40;99.90;;;;;;6271314;28;20131;-74
2021/08/08 04:30:13;;;;;;;2.05;1.67;;;16.50;99.90;;;;;;6272072;28;20059;-75
2021/08/08 04:33:15;;;;;;;1.23;1.00;;;16.40;99.90;;;;;;6271743;28;20124;-75
2021/08/08 04:36:17;;;;;;;2.38;0.88;;;16.50;99.90;;;;;;6271019;28;20072;-75
2021/08/08 04:39:18;;;;;;;3.38;1.90;;;16.50;99.90;;;;;;6271958;28;20044;-75
2021/08/08 04:42:22;;;;;;;4.93;1.58;;;16.60;99.90;;;;;;6271939;28;20081;-75
2021/08/08 04:45:24;;;;;;;4.75;1.05;;;16.60;99.90;;;;;;6271418;28;20083;-75
2021/08/08 04:48:25;;;;;;;5.70;1.30;;;16.60;99.90;;;;;;6272906;28;20044;-75
2021/08/08 04:51:27;;;;;;;3.58;0.77;;;16.70;99.90;;;;;;6289648;28;20046;-75
2021/08/08 04:54:29;;;;;;;1.13;0.88;;;16.70;99.90;;;;;;6296453;28;20179;-74
2021/08/08 04:57:32;;;;;;;0.80;0.77;;;16.80;99.90;;;;;;6295308;28;20131;-75
2021/08/08 05:00:34;;;;;;;3.25;0.95;;;16.80;99.50;;;;;;6296038;28;20174;-75
2021/08/08 05:03:36;;;;;;;2.75;1.13;;;16.90;99.00;;;;;;6295612;28;20121;-75
2021/08/08 05:06:38;;;;;;;1.45;0.95;;;16.90;98.90;;;;;;6295541;28;20066;-75
2021/08/08 05:09:40;;;;;;;2.28;1.35;;;17.00;98.70;;;;;;6296003;28;20056;-75
2021/08/08 05:12:43;;;;;;;1.00;0.90;;;17.00;98.60;;;;;;6295815;28;20044;-74
2021/08/08 05:15:45;;;;;;;4.07;1.02;;;17.10;98.40;;;;;;6295200;28;20207;-75
2021/08/08 05:18:47;;;;;;;3.95;1.15;;;17.20;97.90;;;;;;6295246;28;20115;-75
2021/08/08 05:21:49;;;;;;;5.07;1.90;;;17.20;97.80;;;;;;6296022;28;20048;-75
2021/08/08 05:24:51;;;;;;;0.82;0.80;;;17.30;97.00;;;;;;6295321;28;20048;-75
2021/08/08 05:27:54;;;;;;;2.92;0.80;;;17.40;96.70;;;;;;6294966;28;20462;-75
2021/08/08 05:30:55;;;;;;;4.13;1.30;;;17.50;96.30;;;;;;6295170;28;20182;-75
2021/08/08 05:33:57;;;;;;;4.70;1.20;;;17.60;96.10;;;;;;6295819;28;20121;-75
2021/08/08 05:36:59;;;;;;;1.75;0.98;;;17.70;95.60;;;;;;6294717;28;20409;-75
2021/08/08 05:40:06;;;;;;;1.88;1.38;;;17.80;95.30;;;;;;6295490;28;20044;-75
2021/08/08 05:43:09;;;;;;;3.08;1.00;;;17.80;95.20;;;;;;6294758;28;20040;-75
2021/08/08 05:46:11;;;;;;;2.20;1.00;;;17.80;94.70;;;;;;6295355;28;20352;-75
2021/08/08 05:49:12;;;;;;;1.42;1.05;;;17.80;94.40;;;;;;6291641;28;20041;-75
2021/08/08 05:52:14;;;;;;;3.92;1.40;;;17.90;94.30;;;;;;6275969;28;20455;-75
2021/08/08 05:55:16;;;;;;;1.40;0.90;;;18.10;93.90;;;;;;6270158;28;20187;-75
2021/08/08 05:58:19;;;;;;;2.08;0.85;;;18.20;93.50;;;;;;6270153;28;20702;-75
2021/08/08 06:01:21;;;;;;;1.77;0.80;;;18.30;92.80;;;;;;6270103;28;20142;-75
2021/08/08 06:04:23;;;;;;;5.15;1.13;;;18.30;92.70;;;;;;6269085;28;20049;-75
2021/08/08 06:07:25;;;;;;;0.98;0.88;;;18.30;92.70;;;;;;6294026;28;20543;-74
2021/08/08 06:10:27;;;;;;;3.92;0.80;;;18.30;92.60;;;;;;6294847;28;20072;-74
2021/08/08 06:13:30;;;;;;;2.15;0.90;;;18.30;92.40;;;;;;6294669;28;20131;-75
2021/08/08 06:16:32;;;;;;;4.93;1.50;;;18.30;92.40;;;;;;6294503;28;20056;-74
2021/08/08 06:19:34;;;;;;;4.40;1.00;;;18.30;92.30;;;;;;6294815;28;20125;-74
2021/08/08 06:22:36;;;;;;;3.40;1.45;;;18.50;92.20;;;;;;6294703;28;20182;-74
2021/08/08 06:25:37;;;;;;;1.08;0.95;;;18.60;91.80;;;;;;6294963;28;20135;-75
2021/08/08 06:28:40;;;;;;;2.30;1.15;;;18.90;91.20;;;;;;6294450;28;20190;-75
2021/08/08 06:31:42;;;;;;;1.75;0.80;;;19.20;90.60;;;;;;6294293;28;20125;-74
2021/08/08 06:34:44;;;;;;;4.72;2.05;;;19.30;89.50;;;;;;6294225;28;20189;-74
2021/08/08 06:37:46;;;;;;;1.55;0.82;;;19.30;89.10;;;;;;6294812;28;20738;-74
2021/08/08 06:40:48;;;;;;;1.08;0.70;;;19.40;88.10;;;;;;6294433;28;20493;-74
2021/08/08 06:43:51;;;;;;;3.92;0.90;;;19.40;88.00;;;;;;6294427;28;20582;-74
2021/08/08 06:46:53;;;;;;;3.97;1.70;;;19.40;88.00;;;;;;6293954;28;20049;-74
2021/08/08 06:49:54;;;;;;;1.90;1.08;;;19.40;88.20;;;;;;6293235;28;20532;-74
2021/08/08 06:52:57;;;;;;;1.17;0.80;;;19.50;86.40;;;;;;6268190;28;20098;-74
2021/08/08 06:55:59;;;;;;;1.92;1.25;;;19.60;86.30;;;;;;6270509;28;20044;-74
2021/08/08 06:59:02;;;;;;;1.40;1.15;;;19.80;85.70;;;;;;6273956;28;20510;-74
2021/08/08 07:02:04;;;;;;;3.65;1.35;;;19.80;85.20;;;;;;6274243;28;20049;-74
2021/08/08 07:05:07;;;;;;;2.50;1.05;;;19.90;84.90;;;;;;6274117;28;20048;-74
2021/08/08 07:08:10;;;;;;;1.55;0.90;;;19.90;83.40;;;;;;6273663;28;20052;-74
2021/08/08 07:11:12;;;;;;;5.25;1.27;;;20.00;83.20;;;;;;6274197;28;20102;-74
2021/08/08 07:14:15;;;;;;;3.97;1.58;;;20.10;82.80;;;;;;6274252;28;20127;-74
2021/08/08 07:17:16;;;;;;;3.33;1.33;;;20.20;82.90;;;;;;6273296;28;20238;-74
2021/08/08 07:20:18;;;;;;;2.13;1.30;;;20.40;81.60;;;;;;6273479;28;20442;-75
2021/08/08 07:23:20;;;;;;;3.03;1.08;;;20.60;81.00;;;;;;6273845;28;20040;-74
2021/08/08 07:26:22;;;;;;;5.47;1.35;;;20.70;80.30;;;;;;6274675;28;20057;-74
2021/08/08 07:29:26;;;;;;;8.30;3.53;;;21.00;79.60;;;;;;6273857;28;20562;-74
2021/08/08 07:32:28;;;;;;;1.63;1.30;;;21.20;77.50;;;;;;6274033;28;20111;-74
2021/08/08 07:35:29;;;;;;;5.10;1.17;;;21.30;76.40;;;;;;6274170;28;20091;-74
2021/08/08 07:38:31;;;;;;;8.48;1.73;;;21.20;75.60;;;;;;6274892;28;20135;-75
2021/08/08 07:41:33;;;;;;;3.58;1.50;;;21.00;76.80;;;;;;6273783;28;20130;-73
2021/08/08 07:44:36;;;;;;;2.72;1.55;;;20.90;76.40;;;;;;6273039;28;20045;-74
2021/08/08 07:47:38;;;;;;;3.60;1.50;;;20.80;75.90;;;;;;6272419;28;20406;-73
2021/08/08 07:50:40;;;;;;;5.47;2.55;;;20.80;76.60;;;;;;6272659;28;20072;-74
2021/08/08 07:53:42;;;;;;;3.47;1.48;;;21.20;76.10;;;;;;6271653;28;20139;-74
2021/08/08 07:56:43;;;;;;;3.33;1.13;;;21.70;74.80;;;;;;6272244;28;20071;-74
2021/08/08 07:59:47;;;;;;;2.55;1.25;;;22.20;72.90;;;;;;6272756;28;20118;-73
2021/08/08 08:02:48;;;;;;;5.25;1.33;;;22.30;71.30;;;;;;6272552;28;20522;-73
2021/08/08 08:05:50;;;;;;;1.85;1.10;;;22.20;70.20;;;;;;6273158;28;20537;-73
2021/08/08 08:08:52;;;;;;;4.45;1.70;;;22.10;70.80;;;;;;6271551;28;20106;-73
2021/08/08 08:11:54;;;;;;;4.38;1.83;;;21.90;70.00;;;;;;6272189;28;20586;-73
2021/08/08 08:14:57;;;;;;;5.43;2.80;;;21.80;70.80;;;;;;6293614;28;20087;-73
2021/08/08 08:17:59;;;;;;;3.40;1.10;;;21.60;71.50;;;;;;6297420;28;20133;-73
2021/08/08 08:21:01;;;;;;;4.68;1.90;;;21.40;72.20;;;;;;6297479;28;20052;-73
2021/08/08 08:24:03;;;;;;;6.05;2.08;;;21.10;71.70;;;;;;6299219;28;20068;-72
2021/08/08 08:27:06;;;;;;;7.45;1.25;;;21.00;72.10;;;;;;6307135;28;20176;-72
2021/08/08 08:30:10;;;;;;;5.68;1.70;;;21.10;72.40;;;;;;6330293;28;20075;-72
2021/08/08 08:33:12;;;;;;;8.05;2.00;;;21.30;72.20;;;;;;6330058;28;20028;-71
2021/08/08 08:36:13;;;;;;;5.45;1.70;;;21.50;69.60;;;;;;6329806;28;20041;-72
2021/08/08 08:39:15;;;;;;;4.70;1.45;;;21.70;69.70;;;;;;6329760;28;20028;-72
2021/08/08 08:42:19;;;;;;;4.00;1.45;;;21.60;70.10;;;;;;6329860;28;20082;-72
2021/08/08 08:45:23;;;;;;;6.65;2.03;;;21.60;70.80;;;;;;6328702;28;20033;-73
2021/08/08 08:48:28;;;;;;;4.85;1.50;;;21.50;72.00;;;;;;6327316;28;20036;-72
2021/08/08 08:51:34;;;;;;;7.60;2.05;;;21.20;74.00;;;;;;6324646;28;20028;-72
2021/08/08 08:54:37;;;;;;;7.65;2.25;;;20.90;78.00;;;;;;6284872;28;20144;-72
2021/08/08 08:57:40;;;;;;;9.40;2.60;;;20.40;81.20;;;;;;6271878;28;20122;-72
2021/08/08 09:00:43;;;;;;;6.47;2.75;;;20.10;83.80;;;;;;6272073;28;20434;-73
2021/08/08 09:03:45;;;;;;;4.10;2.45;;;20.00;86.00;;;;;;6272143;28;20139;-73
2021/08/08 09:06:47;;;;;;;8.52;2.35;;;20.00;88.00;;;;;;6271618;28;20060;-73
2021/08/08 09:09:49;;;;;;;4.55;2.30;;;20.20;89.00;;;;;;6272168;28;20053;-74
2021/08/08 09:12:58;;;;;;;3.80;2.78;;;20.30;88.70;;;;;;6275090;28;20193;-73
2021/08/08 09:16:03;;;;;;;3.45;2.35;;;20.50;90.00;;;;;;6295442;28;20127;-73
2021/08/08 09:19:04;;;;;;;6.13;2.55;;;20.70;88.90;;;;;;6295026;28;20056;-73
2021/08/08 09:22:06;;;;;;;2.63;2.42;;;20.90;88.90;;;;;;6296347;28;20052;-74
2021/08/08 09:25:22;;;;;;;3.83;2.40;;;21.10;87.00;;;;;;6295965;28;20119;-74
2021/08/08 09:28:29;;;;;;;7.85;2.58;;;21.40;86.70;;;;;;6296035;28;20149;-73
2021/08/08 09:31:38;;;;;;;4.30;2.60;;;21.70;85.70;;;;;;6296740;28;20531;-73
2021/08/08 09:34:43;;;;;;;3.30;2.25;;;21.90;83.00;;;;;;6295316;28;20048;-73
2021/08/08 09:37:45;;;;;;;5.40;2.85;;;22.20;83.10;;;;;;6295910;28;20131;-73
2021/08/08 09:40:57;;;;;;;4.85;2.22;;;22.50;80.20;;;;;;6295275;28;20047;-73
2021/08/08 09:44:06;;;;;;;6.22;2.25;;;22.70;78.30;;;;;;6295414;28;20075;-73
2021/08/08 09:47:09;;;;;;;3.10;1.95;;;22.80;76.60;;;;;;6294928;28;20109;-73
2021/08/08 09:50:13;;;;;;;10.23;3.45;;;22.90;74.40;;;;;;6295574;28;20098;-73
2021/08/08 09:53:18;;;;;;;5.45;2.58;;;22.90;73.70;;;;;;6290502;28;20507;-73
2021/08/08 09:56:20;;;;;;;5.82;4.72;;;23.10;71.80;;;;;;6268780;28;20072;-73
2021/08/08 09:59:22;;;;;;;5.10;2.30;;;23.10;70.40;;;;;;6269748;28;20064;-72
2021/08/08 10:02:25;;;;;;;4.82;1.98;;;23.00;69.40;;;;;;6270580;28;20336;-73
2021/08/08 10:05:28;;;;;;;3.30;2.00;;;23.00;68.60;;;;;;6269627;28;20122;-74
2021/08/08 10:08:30;;;;;;;9.90;2.95;;;22.90;69.70;;;;;;6269558;28;20491;-73
2021/08/08 10:11:33;;;;;;;4.60;1.80;;;22.60;70.30;;;;;;6269486;28;20119;-72
2021/08/08 10:14:35;;;;;;;3.22;1.70;;;22.40;71.40;;;;;;6288574;28;20132;-73
2021/08/08 10:17:40;;;;;;;5.95;3.25;;;22.20;72.30;;;;;;6295049;28;20139;-73
2021/08/08 10:20:44;;;;;;;3.25;1.92;;;22.00;72.60;;;;;;6294119;28;20449;-72
2021/08/08 10:23:49;;;;;;;6.65;1.88;;;21.60;71.70;;;;;;6293808;28;20537;-72
2021/08/08 10:26:51;;;;;;;2.55;1.60;;;21.20;70.80;;;;;;6293377;28;20131;-73
2021/08/08 10:29:55;;;;;;;12.43;3.92;;;20.80;72.20;;;;;;6296124;28;20131;-72
2021/08/08 10:33:01;;;;;;;5.18;2.03;;;20.70;74.20;;;;;;6299003;28;20562;-72
2021/08/08 10:36:04;;;;;;;5.15;1.83;;;20.80;73.80;;;;;;6298760;28;20055;-73
2021/08/08 10:39:11;;;;;;;2.35;1.90;;;20.90;72.10;;;;;;6298900;28;20170;-72
2021/08/08 10:42:14;;;;;;;1.95;1.55;;;20.90;72.30;;;;;;6299208;28;20052;-72
2021/08/08 10:45:23;;;;;;;2.72;1.50;;;20.90;71.40;;;;;;6298763;28;20054;-72
2021/08/08 10:48:33;;;;;;;5.32;1.80;;;20.90;70.30;;;;;;6298224;28;20498;-72
2021/08/08 10:51:34;;;;;;;2.45;1.40;;;20.90;70.50;;;;;;6298735;28;20059;-72
2021/08/08 10:54:43;;;;;;;2.97;1.67;;;21.10;71.40;;;;;;6291533;28;20105;-74
2021/08/08 10:57:45;;;;;;;3.78;1.67;;;21.30;72.10;;;;;;6273052;28;20187;-73
2021/08/08 11:00:47;;;;;;;3.72;1.42;;;21.30;71.30;;;;;;6274073;28;20483;-73
2021/08/08 11:03:55;;;;;;;3.67;1.27;;;21.10;72.10;;;;;;6273377;28;20051;-73
2021/08/08 11:06:58;;;;;;;5.13;1.73;;;21.00;73.00;;;;;;6273538;28;20052;-73
2021/08/08 11:09:59;;;;;;;3.25;1.50;;;20.90;73.30;;;;;;6274088;28;20045;-73
2021/08/08 11:13:01;;;;;;;2.53;1.58;;;20.90;73.80;;;;;;6279104;28;20113;-73
2021/08/08 11:16:14;;;;;;;3.53;2.50;;;20.70;74.40;;;;;;6298241;28;20072;-71
2021/08/08 11:19:17;;;;;;;4.03;1.88;;;20.40;76.80;;;;;;6298281;28;20043;-73
2021/08/08 11:22:20;;;;;;;8.93;3.03;;;20.00;77.40;;;;;;6298655;28;20583;-73
2021/08/08 11:25:23;;;;;;;4.85;2.60;;;19.60;79.20;;;;;;6298111;28;20142;-73
2021/08/08 11:28:25;;;;;;;14.48;3.80;;;19.30;81.00;;;;;;6297767;28;20052;-72
2021/08/08 11:31:30;;;;;;;4.07;3.35;;;19.00;83.30;;;;;;6297881;28;20089;-72
2021/08/08 11:34:33;;;;;;;4.80;3.30;;;18.50;87.40;;;;;;6298361;28;20059;-72
2021/08/08 11:37:37;;;;;;;6.00;2.80;;;18.20;89.30;;;;;;6297671;28;20127;-72
2021/08/08 11:40:43;;;;;;;6.38;2.83;;;18.00;90.20;;;;;;6297668;28;20048;-72
2021/08/08 11:43:44;;;;;;;5.88;2.65;;;17.90;91.00;;;;;;6297144;28;20072;-72
2021/08/08 11:46:50;;;;;;;4.10;2.40;;;18.20;91.50;;;;;;6297350;28;20052;-72
2021/08/08 11:49:54;;;;;;;3.63;2.03;;;18.70;91.10;;;;;;6298043;28;20051;-73
2021/08/08 11:52:57;;;;;;;3.20;2.03;;;19.00;91.20;;;;;;6297516;28;20054;-73
2021/08/08 11:56:15;;;;;;;2.72;1.83;;;19.30;90.50;;;;;;6286274;28;20049;-73
2021/08/08 11:59:25;;;;;;;5.28;2.85;;;19.60;89.70;;;;;;6272389;28;20056;-72
2021/08/08 12:02:29;;;;;;;6.68;1.58;;;19.80;90.00;;;;;;6272999;28;20052;-72
2021/08/08 12:05:34;;;;;;;4.32;1.83;;;19.90;88.40;;;;;;6272610;28;20510;-72
2021/08/08 12:08:36;;;;;;;3.28;2.58;;;20.00;88.20;;;;;;6272503;28;20045;-72
2021/08/08 12:11:49;;;;;;;2.45;1.92;;;20.20;89.40;;;;;;6272264;28;20093;-73
2021/08/08 12:14:57;;;;;;;2.13;1.30;;;20.60;84.60;;;;;;6292328;28;20055;-74
2021/08/08 12:18:00;;;;;;;1.55;1.20;;;20.90;81.30;;;;;;6297091;28;20059;-72
2021/08/08 12:21:14;;;;;;;2.70;1.60;;;21.00;78.00;;;;;;6296749;28;20106;-72
2021/08/08 12:24:15;;;;;;;2.72;1.20;;;21.20;77.80;;;;;;6296412;28;20178;-71
2021/08/08 12:27:29;;;;;;;2.03;1.40;;;21.40;76.20;;;;;;6296237;28;20052;-74
2021/08/08 12:30:31;;;;;;;1.90;1.15;;;21.70;75.40;;;;;;6296642;28;20048;-74
2021/08/08 12:33:33;;;;;;;5.28;1.50;;;22.00;75.40;;;;;;6296500;28;20127;-73
2021/08/08 12:36:41;;;;;;;2.97;2.22;;;22.10;71.60;;;;;;6296157;28;20566;-73
2021/08/08 12:39:44;;;;;;;2.55;0.90;;;22.20;71.10;;;;;;6296252;28;20101;-73
2021/08/08 12:42:47;;;;;;;1.80;1.25;;;22.30;70.40;;;;;;6296531;28;20139;-73
2021/08/08 12:45:49;;;;;;;2.15;1.20;;;22.70;69.10;;;;;;6296122;28;20125;-73
2021/08/08 12:48:58;;;;;;;2.55;1.42;;;22.90;67.90;;;;;;6296179;28;20040;-74
2021/08/08 12:52:02;;;;;;;2.83;1.20;;;23.10;69.40;;;;;;6296781;28;20040;-74
2021/08/08 12:55:05;;;;;;;4.07;1.40;;;23.20;66.40;;;;;;6295627;28;20036;-74
2021/08/08 12:58:06;;;;;;;13.75;1.48;;;23.40;65.60;;;;;;6278895;28;20044;-74
2021/08/08 13:01:18;;;;;;;3.58;0.70;;;23.70;66.50;;;;;;6271916;28;20041;-74
2021/08/08 13:04:20;;;;;;;1.67;1.02;;;24.10;64.40;;;;;;6271246;28;20567;-74
2021/08/08 13:07:23;;;;;;;2.80;1.23;;;24.30;63.30;;;;;;6270400;28;20588;-74
2021/08/08 13:10:25;;;;;;;2.58;2.22;;;24.40;64.10;;;;;;6271455;28;20199;-74
2021/08/08 13:13:27;;;;;;;2.17;1.02;;;24.40;61.80;;;;;;6279915;28;20036;-74
2021/08/08 13:16:28;;;;;;;4.57;1.17;;;24.40;62.10;;;;;;6295226;28;20451;-74
2021/08/08 13:19:30;;;;;;;3.35;1.27;;;24.40;61.00;;;;;;6295292;28;20086;-73
2021/08/08 13:22:33;;;;;;;3.30;0.90;;;24.20;61.10;;;;;;6295840;28;20186;-74
2021/08/08 13:25:35;;;;;;;3.00;0.93;;;24.00;61.30;;;;;;6295270;28;20055;-74
2021/08/08 13:28:38;;;;;;;5.07;1.35;;;23.80;62.00;;;;;;6295337;28;20048;-74
2021/08/08 13:31:39;;;;;;;1.55;1.45;;;23.60;61.60;;;;;;6295077;28;20417;-74
2021/08/08 13:34:41;;;;;;;6.32;1.55;;;23.30;61.60;;;;;;6294998;28;20528;-74
2021/08/08 13:37:44;;;;;;;3.58;1.75;;;23.20;62.50;;;;;;6295531;28;20091;-74
2021/08/08 13:40:46;;;;;;;2.25;1.15;;;23.10;64.40;;;;;;6295094;28;20051;-74
2021/08/08 13:43:48;;;;;;;6.60;1.00;;;23.00;64.60;;;;;;6295167;28;20045;-74
2021/08/08 13:46:50;;;;;;;6.68;1.52;;;23.00;64.50;;;;;;6294689;28;20044;-75
2021/08/08 13:49:51;;;;;;;2.53;1.15;;;22.90;64.70;;;;;;6295447;28;20129;-74
2021/08/08 13:52:55;;;;;;;3.75;1.55;;;22.90;65.20;;;;;;6295089;28;20198;-74
2021/08/08 13:55:56;;;;;;;7.72;1.35;;;22.90;64.40;;;;;;6295023;28;20131;-74
2021/08/08 13:58:58;;;;;;;4.18;1.08;;;23.00;64.90;;;;;;6275143;28;20124;-74
2021/08/08 14:02:00;;;;;;;3.53;1.20;;;23.10;62.30;;;;;;6270563;28;20175;-74
2021/08/08 14:05:02;;;;;;;3.75;2.25;;;23.40;60.20;;;;;;6271224;28;20588;-74
2021/08/08 14:08:06;;;;;;;3.85;1.10;;;23.70;58.00;;;;;;6274855;28;20138;-73
2021/08/08 14:11:08;;;;;;;4.45;1.65;;;24.10;55.30;;;;;;6274802;28;20171;-74
2021/08/08 14:14:09;;;;;;;1.27;1.02;;;24.40;54.20;;;;;;6290018;28;20161;-74
2021/08/08 14:17:11;;;;;;;2.53;1.20;;;24.60;53.50;;;;;;6299527;28;20170;-74
2021/08/08 14:20:14;;;;;;;2.53;1.08;;;24.90;53.00;;;;;;6299735;28;20071;-73
2021/08/08 14:23:17;;;;;;;6.38;1.73;;;25.10;50.80;;;;;;6299496;28;20052;-74
2021/08/08 14:26:19;;;;;;;4.43;1.60;;;25.30;52.70;;;;;;6299693;28;20574;-72
2021/08/08 14:29:21;;;;;;;2.30;1.08;;;25.30;52.20;;;;;;6299306;28;20109;-73
2021/08/08 14:32:23;;;;;;;3.70;1.08;;;25.30;52.70;;;;;;6299500;28;20128;-73
2021/08/08 14:35:24;;;;;;;4.05;1.02;;;25.40;51.00;;;;;;6299479;28;20110;-72
2021/08/08 14:38:28;;;;;;;1.27;0.70;;;25.30;47.70;;;;;;6299527;28;20127;-73
2021/08/08 14:41:29;;;;;;;4.88;0.77;;;25.10;47.90;;;;;;6299473;28;20109;-73
2021/08/08 14:44:31;;;;;;;1.52;0.65;;;24.90;48.20;;;;;;6299031;28;20190;-73
2021/08/08 14:47:33;;;;;;;1.33;0.70;;;24.80;48.50;;;;;;6299121;28;20076;-74
2021/08/08 14:50:35;;;;;;;1.75;0.65;;;24.80;47.40;;;;;;6299005;28;20131;-74
2021/08/08 14:53:38;;;;;;;1.70;0.68;;;24.90;48.20;;;;;;6299805;28;20061;-73
2021/08/08 14:56:40;;;;;;;2.50;0.85;;;25.10;48.10;;;;;;6298920;28;20094;-73
2021/08/08 14:59:41;;;;;;;1.75;0.75;;;25.20;47.60;;;;;;6281730;28;20060;-74
2021/08/08 15:02:43;;;;;;;2.97;0.98;;;25.30;48.00;;;;;;6291102;28;20110;-73
2021/08/08 15:05:45;;;;;;;4.88;0.90;;;25.20;48.50;;;;;;6274402;28;20044;-73
2021/08/08 15:08:48;;;;;;;2.97;0.80;;;25.20;48.30;;;;;;6274138;28;20648;-72
2021/08/08 15:11:50;;;;;;;2.60;1.00;;;25.10;47.80;;;;;;6273954;28;20048;-73
2021/08/08 15:14:52;;;;;;;3.85;2.35;;;25.00;48.80;;;;;;6295221;28;20122;-73
2021/08/08 15:17:57;;;;;;;2.63;1.13;;;24.90;50.20;;;;;;6294829;28;20056;-73
2021/08/08 15:20:59;;;;;;;1.67;0.77;;;24.80;49.70;;;;;;6298760;28;20040;-74
2021/08/08 15:24:02;;;;;;;1.33;1.15;;;24.50;51.00;;;;;;6298572;28;20068;-74
2021/08/08 15:27:05;;;;;;;2.15;0.90;;;24.00;52.50;;;;;;6297966;28;20070;-73
2021/08/08 15:30:07;;;;;;;4.78;1.08;;;23.60;52.70;;;;;;6298688;28;20587;-74
2021/08/08 15:33:09;;;;;;;3.45;0.95;;;23.30;53.70;;;;;;6298049;28;20127;-75
2021/08/08 15:36:11;;;;;;;1.67;1.00;;;23.00;53.20;;;;;;6298163;28;20089;-75
2021/08/08 15:39:14;;;;;;;1.58;1.00;;;22.80;54.20;;;;;;6297831;28;20457;-74
2021/08/08 15:42:16;;;;;;;5.15;3.42;;;22.60;55.80;;;;;;6299192;28;20066;-74
2021/08/08 15:45:18;;;;;;;0.85;0.73;;;22.60;56.40;;;;;;6298060;28;20086;-75
2021/08/08 15:48:20;;;;;;;2.42;1.40;;;22.40;57.20;;;;;;6298009;28;20166;-75
2021/08/08 15:51:22;;;;;;;5.95;1.60;;;22.50;58.90;;;;;;6298289;28;20040;-74